sensor_id;sensor_type;location;lat;lon;timestamp;temperature;humidity
64638;HTU21D;51049;45.046;38.950;2022-12-07T00:02:47;0.07;64.98
64638;HTU21D;51049;45.046;38.950;2022-12-07T00:05:17;0.08;64.97
64638;HTU21D;51049;45.046;38.950;2022-12-07T00:08:09;0.05;64.96
64638;HTU21D;51049;45.046;38.950;2022-12-07T00:10:41;0.04;64.99
64638;HTU21D;51049;45.046;38.950;2022-12-07T00:13:26;0.03;64.99
64638;HTU21D;51049;45.046;38.950;2022-12-07T00:16:07;0.02;65.01
64638;HTU21D;51049;45.046;38.950;2022-12-07T00:18:50;-0.00;65.02
64638;HTU21D;51049;45.046;38.950;2022-12-07T00:21:41;0.01;65.04
64638;HTU21D;51049;45.046;38.950;2022-12-07T00:24:18;-0.00;65.05
64638;HTU21D;51049;45.046;38.950;2022-12-07T00:27:09;0.01;65.04
64638;HTU21D;51049;45.046;38.950;2022-12-07T00:29:41;-0.01;65.02
64638;HTU21D;51049;45.046;38.950;2022-12-07T00:35:10;-0.02;65.06
64638;HTU21D;51049;45.046;38.950;2022-12-07T00:37:46;-0.03;65.07
64638;HTU21D;51049;45.046;38.950;2022-12-07T00:40:19;-0.05;65.08
64638;HTU21D;51049;45.046;38.950;2022-12-07T00:43:00;-0.05;65.10
64638;HTU21D;51049;45.046;38.950;2022-12-07T00:45:45;-0.03;65.11
64638;HTU21D;51049;45.046;38.950;2022-12-07T00:51:07;-0.05;65.11
64638;HTU21D;51049;45.046;38.950;2022-12-07T00:56:38;-0.03;65.15
64638;HTU21D;51049;45.046;38.950;2022-12-07T00:59:12;-0.02;65.14
64638;HTU21D;51049;45.046;38.950;2022-12-07T01:01:45;-0.02;65.16
64638;HTU21D;51049;45.046;38.950;2022-12-07T01:04:19;-0.01;65.17
64638;HTU21D;51049;45.046;38.950;2022-12-07T01:07:16;-0.01;65.19
64638;HTU21D;51049;45.046;38.950;2022-12-07T01:09:58;-0.00;65.16
64638;HTU21D;51049;45.046;38.950;2022-12-07T01:12:30;-0.00;65.17
64638;HTU21D;51049;45.046;38.950;2022-12-07T01:15:19;-0.02;65.17
64638;HTU21D;51049;45.046;38.950;2022-12-07T01:17:51;-0.03;65.19
64638;HTU21D;51049;45.046;38.950;2022-12-07T01:20:21;-0.02;65.21
64638;HTU21D;51049;45.046;38.950;2022-12-07T01:23:00;-0.03;65.21
64638;HTU21D;51049;45.046;38.950;2022-12-07T01:25:57;-0.05;65.20
64638;HTU21D;51049;45.046;38.950;2022-12-07T01:28:39;-0.08;65.18
64638;HTU21D;51049;45.046;38.950;2022-12-07T01:31:16;-0.12;65.17
64638;HTU21D;51049;45.046;38.950;2022-12-07T01:34:03;-0.17;65.21
64638;HTU21D;51049;45.046;38.950;2022-12-07T01:36:35;-0.19;65.27
64638;HTU21D;51049;45.046;38.950;2022-12-07T01:39:20;-0.23;65.30
64638;HTU21D;51049;45.046;38.950;2022-12-07T01:42:00;-0.26;65.30
64638;HTU21D;51049;45.046;38.950;2022-12-07T01:48:08;-0.32;65.33
64638;HTU21D;51049;45.046;38.950;2022-12-07T01:50:40;-0.34;65.38
64638;HTU21D;51049;45.046;38.950;2022-12-07T01:53:17;-0.35;65.40
64638;HTU21D;51049;45.046;38.950;2022-12-07T01:55:47;-0.34;65.40
64638;HTU21D;51049;45.046;38.950;2022-12-07T01:58:23;-0.35;65.39
64638;HTU21D;51049;45.046;38.950;2022-12-07T02:04:29;-0.39;65.34
64638;HTU21D;51049;45.046;38.950;2022-12-07T02:07:10;-0.42;65.33
64638;HTU21D;51049;45.046;38.950;2022-12-07T02:09:45;-0.44;65.37
64638;HTU21D;51049;45.046;38.950;2022-12-07T02:12:12;-0.47;65.39
64638;HTU21D;51049;45.046;38.950;2022-12-07T02:14:46;-0.49;65.40
64638;HTU21D;51049;45.046;38.950;2022-12-07T02:17:30;-0.51;65.43
64638;HTU21D;51049;45.046;38.950;2022-12-07T02:20:36;-0.52;65.46
64638;HTU21D;51049;45.046;38.950;2022-12-07T02:38:26;-0.60;65.45
64638;HTU21D;51049;45.046;38.950;2022-12-07T02:41:22;-0.61;65.43
64638;HTU21D;51049;45.046;38.950;2022-12-07T02:44:03;-0.64;65.43
64638;HTU21D;51049;45.046;38.950;2022-12-07T02:46:38;-0.66;65.43
64638;HTU21D;51049;45.046;38.950;2022-12-07T02:49:20;-0.68;65.49
64638;HTU21D;51049;45.046;38.950;2022-12-07T02:52:03;-0.69;65.50
64638;HTU21D;51049;45.046;38.950;2022-12-07T02:54:43;-0.72;65.43
64638;HTU21D;51049;45.046;38.950;2022-12-07T02:57:33;-0.80;65.43
64638;HTU21D;51049;45.046;38.950;2022-12-07T03:00:19;-0.83;65.46
64638;HTU21D;51049;45.046;38.950;2022-12-07T03:03:08;-0.86;65.50
64638;HTU21D;51049;45.046;38.950;2022-12-07T03:14:33;-0.95;65.55
64638;HTU21D;51049;45.046;38.950;2022-12-07T03:17:19;-0.95;65.58
64638;HTU21D;51049;45.046;38.950;2022-12-07T03:19:48;-0.97;65.57
64638;HTU21D;51049;45.046;38.950;2022-12-07T03:22:34;-0.99;65.52
64638;HTU21D;51049;45.046;38.950;2022-12-07T03:25:15;-0.99;65.56
64638;HTU21D;51049;45.046;38.950;2022-12-07T03:27:56;-0.99;65.56
64638;HTU21D;51049;45.046;38.950;2022-12-07T03:30:30;-0.99;65.59
64638;HTU21D;51049;45.046;38.950;2022-12-07T03:33:49;-0.97;65.60
64638;HTU21D;51049;45.046;38.950;2022-12-07T03:36:37;-0.96;65.60
64638;HTU21D;51049;45.046;38.950;2022-12-07T03:45:04;-0.96;65.62
64638;HTU21D;51049;45.046;38.950;2022-12-07T03:48:05;-0.97;65.63
64638;HTU21D;51049;45.046;38.950;2022-12-07T03:51:05;-0.96;65.63
64638;HTU21D;51049;45.046;38.950;2022-12-07T03:53:50;-0.96;65.63
64638;HTU21D;51049;45.046;38.950;2022-12-07T03:56:27;-0.95;65.60
64638;HTU21D;51049;45.046;38.950;2022-12-07T03:58:57;-0.96;65.63
64638;HTU21D;51049;45.046;38.950;2022-12-07T04:01:40;-0.94;65.64
64638;HTU21D;51049;45.046;38.950;2022-12-07T04:04:10;-0.95;65.63
64638;HTU21D;51049;45.046;38.950;2022-12-07T04:06:51;-0.97;65.60
64638;HTU21D;51049;45.046;38.950;2022-12-07T04:09:31;-0.98;65.62
64638;HTU21D;51049;45.046;38.950;2022-12-07T04:12:06;-1.00;65.63
64638;HTU21D;51049;45.046;38.950;2022-12-07T04:14:51;-1.01;65.65
64638;HTU21D;51049;45.046;38.950;2022-12-07T04:17:21;-1.02;65.65
64638;HTU21D;51049;45.046;38.950;2022-12-07T04:19:54;-1.03;65.66
64638;HTU21D;51049;45.046;38.950;2022-12-07T04:22:24;-1.03;65.69
64638;HTU21D;51049;45.046;38.950;2022-12-07T04:25:03;-1.05;65.71
64638;HTU21D;51049;45.046;38.950;2022-12-07T04:27:52;-1.04;65.71
64638;HTU21D;51049;45.046;38.950;2022-12-07T04:30:33;-1.04;65.70
64638;HTU21D;51049;45.046;38.950;2022-12-07T04:33:12;-1.04;65.71
64638;HTU21D;51049;45.046;38.950;2022-12-07T04:35:47;-1.02;65.71
64638;HTU21D;51049;45.046;38.950;2022-12-07T04:38:36;-1.03;65.71
64638;HTU21D;51049;45.046;38.950;2022-12-07T04:41:10;-1.04;65.71
64638;HTU21D;51049;45.046;38.950;2022-12-07T04:44:08;-1.03;65.73
64638;HTU21D;51049;45.046;38.950;2022-12-07T04:47:00;-1.03;65.72
64638;HTU21D;51049;45.046;38.950;2022-12-07T04:49:32;-1.02;65.74
64638;HTU21D;51049;45.046;38.950;2022-12-07T04:52:20;-1.00;65.75
64638;HTU21D;51049;45.046;38.950;2022-12-07T04:54:55;-1.00;65.75
64638;HTU21D;51049;45.046;38.950;2022-12-07T04:57:22;-0.98;65.75
64638;HTU21D;51049;45.046;38.950;2022-12-07T05:00:02;-0.96;65.79
64638;HTU21D;51049;45.046;38.950;2022-12-07T05:02:52;-0.93;65.77
64638;HTU21D;51049;45.046;38.950;2022-12-07T05:05:40;-0.93;65.78
64638;HTU21D;51049;45.046;38.950;2022-12-07T05:11:19;-0.89;65.76
64638;HTU21D;51049;45.046;38.950;2022-12-07T05:14:14;-0.87;65.77
64638;HTU21D;51049;45.046;38.950;2022-12-07T05:16:50;-0.84;65.75
64638;HTU21D;51049;45.046;38.950;2022-12-07T05:19:20;-0.83;65.75
64638;HTU21D;51049;45.046;38.950;2022-12-07T05:21:58;-0.80;65.77
64638;HTU21D;51049;45.046;38.950;2022-12-07T05:24:27;-0.75;65.77
64638;HTU21D;51049;45.046;38.950;2022-12-07T05:26:59;-0.73;65.78
64638;HTU21D;51049;45.046;38.950;2022-12-07T05:29:28;-0.71;65.75
64638;HTU21D;51049;45.046;38.950;2022-12-07T05:32:15;-0.72;65.70
64638;HTU21D;51049;45.046;38.950;2022-12-07T05:34:47;-0.72;65.71
64638;HTU21D;51049;45.046;38.950;2022-12-07T05:37:21;-0.71;65.72
64638;HTU21D;51049;45.046;38.950;2022-12-07T05:39:58;-0.71;65.73
64638;HTU21D;51049;45.046;38.950;2022-12-07T05:42:25;-0.69;65.75
64638;HTU21D;51049;45.046;38.950;2022-12-07T05:44:54;-0.69;65.76
64638;HTU21D;51049;45.046;38.950;2022-12-07T05:47:23;-0.68;65.81
64638;HTU21D;51049;45.046;38.950;2022-12-07T05:49:55;-0.65;65.80
64638;HTU21D;51049;45.046;38.950;2022-12-07T05:52:30;-0.62;65.80
64638;HTU21D;51049;45.046;38.950;2022-12-07T05:54:57;-0.61;65.82
64638;HTU21D;51049;45.046;38.950;2022-12-07T05:57:34;-0.59;65.85
64638;HTU21D;51049;45.046;38.950;2022-12-07T06:00:01;-0.55;65.85
64638;HTU21D;51049;45.046;38.950;2022-12-07T06:02:40;-0.51;65.85
64638;HTU21D;51049;45.046;38.950;2022-12-07T06:05:07;-0.44;65.86
64638;HTU21D;51049;45.046;38.950;2022-12-07T06:07:39;-0.40;65.82
64638;HTU21D;51049;45.046;38.950;2022-12-07T06:10:13;-0.37;65.79
64638;HTU21D;51049;45.046;38.950;2022-12-07T06:12:40;-0.34;65.76
64638;HTU21D;51049;45.046;38.950;2022-12-07T06:15:11;-0.34;65.76
64638;HTU21D;51049;45.046;38.950;2022-12-07T06:17:42;-0.34;65.78
64638;HTU21D;51049;45.046;38.950;2022-12-07T06:20:08;-0.31;65.81
64638;HTU21D;51049;45.046;38.950;2022-12-07T06:22:38;-0.28;65.80
64638;HTU21D;51049;45.046;38.950;2022-12-07T06:25:04;-0.29;65.78
64638;HTU21D;51049;45.046;38.950;2022-12-07T06:27:34;-0.28;65.82
64638;HTU21D;51049;45.046;38.950;2022-12-07T06:30:17;-0.25;65.85
64638;HTU21D;51049;45.046;38.950;2022-12-07T06:32:43;-0.24;65.86
64638;HTU21D;51049;45.046;38.950;2022-12-07T06:35:17;-0.20;65.85
64638;HTU21D;51049;45.046;38.950;2022-12-07T06:37:44;-0.16;65.88
64638;HTU21D;51049;45.046;38.950;2022-12-07T06:40:45;-0.13;65.86
64638;HTU21D;51049;45.046;38.950;2022-12-07T06:43:12;-0.11;65.82
64638;HTU21D;51049;45.046;38.950;2022-12-07T06:45:53;-0.10;65.82
64638;HTU21D;51049;45.046;38.950;2022-12-07T06:48:22;-0.08;65.85
64638;HTU21D;51049;45.046;38.950;2022-12-07T06:50:49;-0.06;65.85
64638;HTU21D;51049;45.046;38.950;2022-12-07T06:53:25;-0.05;65.85
64638;HTU21D;51049;45.046;38.950;2022-12-07T06:55:51;-0.03;65.85
64638;HTU21D;51049;45.046;38.950;2022-12-07T06:58:17;-0.01;65.87
64638;HTU21D;51049;45.046;38.950;2022-12-07T07:00:44;-0.00;65.84
64638;HTU21D;51049;45.046;38.950;2022-12-07T07:03:22;-0.00;65.88
64638;HTU21D;51049;45.046;38.950;2022-12-07T07:06:00;-0.00;65.88
64638;HTU21D;51049;45.046;38.950;2022-12-07T07:08:26;0.01;65.88
64638;HTU21D;51049;45.046;38.950;2022-12-07T07:11:22;0.03;65.93
64638;HTU21D;51049;45.046;38.950;2022-12-07T07:17:28;0.06;65.91
64638;HTU21D;51049;45.046;38.950;2022-12-07T07:20:07;0.08;65.88
64638;HTU21D;51049;45.046;38.950;2022-12-07T07:23:05;0.13;65.92
64638;HTU21D;51049;45.046;38.950;2022-12-07T07:26:12;0.18;65.88
64638;HTU21D;51049;45.046;38.950;2022-12-07T07:35:27;0.30;65.77
64638;HTU21D;51049;45.046;38.950;2022-12-07T07:38:39;0.31;65.80
64638;HTU21D;51049;45.046;38.950;2022-12-07T07:41:26;0.34;65.85
64638;HTU21D;51049;45.046;38.950;2022-12-07T07:44:04;0.38;65.91
64638;HTU21D;51049;45.046;38.950;2022-12-07T07:46:52;0.46;65.91
64638;HTU21D;51049;45.046;38.950;2022-12-07T07:49:49;0.54;65.95
64638;HTU21D;51049;45.046;38.950;2022-12-07T07:55:36;0.77;65.91
64638;HTU21D;51049;45.046;38.950;2022-12-07T07:58:25;0.89;65.85
64638;HTU21D;51049;45.046;38.950;2022-12-07T08:04:44;1.21;65.70
64638;HTU21D;51049;45.046;38.950;2022-12-07T08:07:18;1.32;65.61
64638;HTU21D;51049;45.046;38.950;2022-12-07T08:09:54;1.40;65.50
64638;HTU21D;51049;45.046;38.950;2022-12-07T08:16:15;1.51;65.50
64638;HTU21D;51049;45.046;38.950;2022-12-07T08:25:27;1.52;65.61
64638;HTU21D;51049;45.046;38.950;2022-12-07T08:28:20;1.55;65.73
64638;HTU21D;51049;45.046;38.950;2022-12-07T08:31:28;1.65;65.76
64638;HTU21D;51049;45.046;38.950;2022-12-07T08:34:25;1.71;65.74
64638;HTU21D;51049;45.046;38.950;2022-12-07T08:36:57;1.78;65.78
64638;HTU21D;51049;45.046;38.950;2022-12-07T08:39:29;1.87;65.79
64638;HTU21D;51049;45.046;38.950;2022-12-07T08:42:01;1.99;65.87
64638;HTU21D;51049;45.046;38.950;2022-12-07T08:44:48;2.16;65.83
64638;HTU21D;51049;45.046;38.950;2022-12-07T08:47:16;2.29;65.76
64638;HTU21D;51049;45.046;38.950;2022-12-07T08:49:53;2.44;65.78
64638;HTU21D;51049;45.046;38.950;2022-12-07T08:52:32;2.60;65.75
64638;HTU21D;51049;45.046;38.950;2022-12-07T08:55:02;2.73;65.66
64638;HTU21D;51049;45.046;38.950;2022-12-07T08:57:41;2.81;65.47
64638;HTU21D;51049;45.046;38.950;2022-12-07T09:00:24;2.87;65.49
64638;HTU21D;51049;45.046;38.950;2022-12-07T09:03:12;3.01;65.53
64638;HTU21D;51049;45.046;38.950;2022-12-07T09:05:42;3.14;65.46
64638;HTU21D;51049;45.046;38.950;2022-12-07T09:08:37;3.24;65.34
64638;HTU21D;51049;45.046;38.950;2022-12-07T09:11:06;3.30;65.30
64638;HTU21D;51049;45.046;38.950;2022-12-07T09:13:36;3.38;65.33
64638;HTU21D;51049;45.046;38.950;2022-12-07T09:16:10;3.50;65.37
64638;HTU21D;51049;45.046;38.950;2022-12-07T09:18:46;3.58;65.24
64638;HTU21D;51049;45.046;38.950;2022-12-07T09:21:20;3.61;65.23
64638;HTU21D;51049;45.046;38.950;2022-12-07T09:23:52;3.59;65.20
64638;HTU21D;51049;45.046;38.950;2022-12-07T09:26:37;3.55;65.19
64638;HTU21D;51049;45.046;38.950;2022-12-07T09:29:43;3.49;65.33
64638;HTU21D;51049;45.046;38.950;2022-12-07T09:32:10;3.49;65.45
64638;HTU21D;51049;45.046;38.950;2022-12-07T09:34:48;3.53;65.38
64638;HTU21D;51049;45.046;38.950;2022-12-07T09:44:12;3.70;65.43
64638;HTU21D;51049;45.046;38.950;2022-12-07T09:46:41;3.87;65.76
64638;HTU21D;51049;45.046;38.950;2022-12-07T09:49:20;4.21;66.40
64638;HTU21D;51049;45.046;38.950;2022-12-07T09:51:47;4.72;67.10
64638;HTU21D;51049;45.046;38.950;2022-12-07T09:54:20;5.07;66.44
64638;HTU21D;51049;45.046;38.950;2022-12-07T09:56:58;5.30;66.24
64638;HTU21D;51049;45.046;38.950;2022-12-07T09:59:27;5.54;66.40
64638;HTU21D;51049;45.046;38.950;2022-12-07T10:01:56;5.74;66.47
64638;HTU21D;51049;45.046;38.950;2022-12-07T10:04:47;6.20;67.01
64638;HTU21D;51049;45.046;38.950;2022-12-07T10:07:16;6.71;67.21
64638;HTU21D;51049;45.046;38.950;2022-12-07T10:09:59;7.09;66.47
64638;HTU21D;51049;45.046;38.950;2022-12-07T10:12:59;7.35;66.01
64638;HTU21D;51049;45.046;38.950;2022-12-07T10:15:46;7.35;65.29
64638;HTU21D;51049;45.046;38.950;2022-12-07T10:21:14;7.02;64.76
64638;HTU21D;51049;45.046;38.950;2022-12-07T10:24:17;6.73;64.75
64638;HTU21D;51049;45.046;38.950;2022-12-07T10:29:43;6.31;64.82
64638;HTU21D;51049;45.046;38.950;2022-12-07T10:35:15;6.07;65.07
64638;HTU21D;51049;45.046;38.950;2022-12-07T10:37:52;6.27;66.22
64638;HTU21D;51049;45.046;38.950;2022-12-07T10:40:38;7.24;67.26
64638;HTU21D;51049;45.046;38.950;2022-12-07T10:45:58;9.46;66.36
64638;HTU21D;51049;45.046;38.950;2022-12-07T10:51:52;11.19;64.32
64638;HTU21D;51049;45.046;38.950;2022-12-07T10:54:37;11.70;63.37
64638;HTU21D;51049;45.046;38.950;2022-12-07T11:00:18;12.23;62.08
64638;HTU21D;51049;45.046;38.950;2022-12-07T11:03:06;12.48;61.61
64638;HTU21D;51049;45.046;38.950;2022-12-07T11:12:38;13.12;60.71
64638;HTU21D;51049;45.046;38.950;2022-12-07T11:15:04;12.85;60.68
64638;HTU21D;51049;45.046;38.950;2022-12-07T11:17:53;12.23;60.90
64638;HTU21D;51049;45.046;38.950;2022-12-07T11:20:52;11.38;60.95
64638;HTU21D;51049;45.046;38.950;2022-12-07T11:32:53;9.39;62.85
64638;HTU21D;51049;45.046;38.950;2022-12-07T11:35:36;9.42;63.11
64638;HTU21D;51049;45.046;38.950;2022-12-07T11:38:16;9.50;62.70
64638;HTU21D;51049;45.046;38.950;2022-12-07T11:40:48;9.47;62.53
64638;HTU21D;51049;45.046;38.950;2022-12-07T11:46:15;9.07;62.49
64638;HTU21D;51049;45.046;38.950;2022-12-07T11:48:53;8.83;62.49
64638;HTU21D;51049;45.046;38.950;2022-12-07T11:51:34;8.52;62.57
64638;HTU21D;51049;45.046;38.950;2022-12-07T12:06:47;7.25;63.52
64638;HTU21D;51049;45.046;38.950;2022-12-07T12:09:58;7.03;63.65
64638;HTU21D;51049;45.046;38.950;2022-12-07T12:18:38;6.50;63.82
64638;HTU21D;51049;45.046;38.950;2022-12-07T12:21:28;6.38;63.86
64638;HTU21D;51049;45.046;38.950;2022-12-07T12:24:26;6.26;63.89
64638;HTU21D;51049;45.046;38.950;2022-12-07T12:27:17;6.19;63.88
64638;HTU21D;51049;45.046;38.950;2022-12-07T12:29:54;6.11;63.79
64638;HTU21D;51049;45.046;38.950;2022-12-07T12:32:24;6.02;63.77
64638;HTU21D;51049;45.046;38.950;2022-12-07T12:35:35;5.92;63.73
64638;HTU21D;51049;45.046;38.950;2022-12-07T12:38:33;5.77;63.73
64638;HTU21D;51049;45.046;38.950;2022-12-07T12:50:38;5.26;63.81
64638;HTU21D;51049;45.046;38.950;2022-12-07T12:53:21;5.18;63.84
64638;HTU21D;51049;45.046;38.950;2022-12-07T12:56:11;5.09;63.86
64638;HTU21D;51049;45.046;38.950;2022-12-07T12:58:48;5.02;63.89
64638;HTU21D;51049;45.046;38.950;2022-12-07T13:04:03;4.88;63.93
64638;HTU21D;51049;45.046;38.950;2022-12-07T13:06:46;4.82;63.95
64638;HTU21D;51049;45.046;38.950;2022-12-07T13:09:37;4.76;63.99
64638;HTU21D;51049;45.046;38.950;2022-12-07T13:12:16;4.68;64.00
64638;HTU21D;51049;45.046;38.950;2022-12-07T13:20:03;4.50;64.09
64638;HTU21D;51049;45.046;38.950;2022-12-07T13:22:41;4.43;64.14
64638;HTU21D;51049;45.046;38.950;2022-12-07T13:25:36;4.36;64.19
64638;HTU21D;51049;45.046;38.950;2022-12-07T13:28:17;4.28;64.24
64638;HTU21D;51049;45.046;38.950;2022-12-07T13:31:04;4.22;64.30
64638;HTU21D;51049;45.046;38.950;2022-12-07T13:33:43;4.17;64.32
64638;HTU21D;51049;45.046;38.950;2022-12-07T13:36:39;4.12;64.34
64638;HTU21D;51049;45.046;38.950;2022-12-07T13:41:44;4.03;64.34
64638;HTU21D;51049;45.046;38.950;2022-12-07T13:44:22;3.98;64.40
64638;HTU21D;51049;45.046;38.950;2022-12-07T13:47:46;3.95;64.43
64638;HTU21D;51049;45.046;38.950;2022-12-07T13:50:31;3.91;64.46
64638;HTU21D;51049;45.046;38.950;2022-12-07T13:53:01;3.90;64.44
64638;HTU21D;51049;45.046;38.950;2022-12-07T13:55:47;3.90;64.44
64638;HTU21D;51049;45.046;38.950;2022-12-07T13:58:19;3.89;64.43
64638;HTU21D;51049;45.046;38.950;2022-12-07T14:00:57;3.85;64.43
64638;HTU21D;51049;45.046;38.950;2022-12-07T14:03:39;3.85;64.46
64638;HTU21D;51049;45.046;38.950;2022-12-07T14:06:24;3.84;64.46
64638;HTU21D;51049;45.046;38.950;2022-12-07T14:09:19;3.83;64.45
64638;HTU21D;51049;45.046;38.950;2022-12-07T14:11:52;3.79;64.43
64638;HTU21D;51049;45.046;38.950;2022-12-07T14:14:33;3.78;64.46
64638;HTU21D;51049;45.046;38.950;2022-12-07T14:17:08;3.77;64.49
64638;HTU21D;51049;45.046;38.950;2022-12-07T14:19:58;3.76;64.52
64638;HTU21D;51049;45.046;38.950;2022-12-07T14:22:36;3.75;64.53
64638;HTU21D;51049;45.046;38.950;2022-12-07T14:27:52;3.77;64.54
64638;HTU21D;51049;45.046;38.950;2022-12-07T14:30:23;3.79;64.55
64638;HTU21D;51049;45.046;38.950;2022-12-07T14:32:54;3.80;64.57
64638;HTU21D;51049;45.046;38.950;2022-12-07T14:35:24;3.83;64.56
64638;HTU21D;51049;45.046;38.950;2022-12-07T14:37:56;3.85;64.55
64638;HTU21D;51049;45.046;38.950;2022-12-07T14:40:39;3.87;64.55
64638;HTU21D;51049;45.046;38.950;2022-12-07T14:43:20;3.88;64.55
64638;HTU21D;51049;45.046;38.950;2022-12-07T14:45:56;3.92;64.55
64638;HTU21D;51049;45.046;38.950;2022-12-07T14:48:22;3.93;64.56
64638;HTU21D;51049;45.046;38.950;2022-12-07T14:50:58;3.98;64.53
64638;HTU21D;51049;45.046;38.950;2022-12-07T14:53:35;4.01;64.53
64638;HTU21D;51049;45.046;38.950;2022-12-07T14:56:05;4.02;64.53
64638;HTU21D;51049;45.046;38.950;2022-12-07T14:58:40;4.06;64.51
64638;HTU21D;51049;45.046;38.950;2022-12-07T15:01:17;4.07;64.54
64638;HTU21D;51049;45.046;38.950;2022-12-07T15:03:49;4.08;64.54
64638;HTU21D;51049;45.046;38.950;2022-12-07T15:06:24;4.12;64.52
64638;HTU21D;51049;45.046;38.950;2022-12-07T15:09:06;4.13;64.53
64638;HTU21D;51049;45.046;38.950;2022-12-07T15:11:42;4.14;64.53
64638;HTU21D;51049;45.046;38.950;2022-12-07T15:14:12;4.14;64.54
64638;HTU21D;51049;45.046;38.950;2022-12-07T15:16:42;4.16;64.53
64638;HTU21D;51049;45.046;38.950;2022-12-07T15:19:19;4.15;64.56
64638;HTU21D;51049;45.046;38.950;2022-12-07T15:21:51;4.16;64.58
64638;HTU21D;51049;45.046;38.950;2022-12-07T15:24:29;4.17;64.59
64638;HTU21D;51049;45.046;38.950;2022-12-07T15:27:02;4.16;64.59
64638;HTU21D;51049;45.046;38.950;2022-12-07T15:29:33;4.17;64.59
64638;HTU21D;51049;45.046;38.950;2022-12-07T15:32:12;4.17;64.62
64638;HTU21D;51049;45.046;38.950;2022-12-07T15:34:45;4.18;64.63
64638;HTU21D;51049;45.046;38.950;2022-12-07T15:37:14;4.19;64.63
64638;HTU21D;51049;45.046;38.950;2022-12-07T15:39:47;4.19;64.63
64638;HTU21D;51049;45.046;38.950;2022-12-07T15:42:27;4.20;64.66
64638;HTU21D;51049;45.046;38.950;2022-12-07T15:45:12;4.20;64.67
64638;HTU21D;51049;45.046;38.950;2022-12-07T15:47:56;4.21;64.65
64638;HTU21D;51049;45.046;38.950;2022-12-07T15:50:32;4.20;64.67
64638;HTU21D;51049;45.046;38.950;2022-12-07T15:53:09;4.21;64.68
64638;HTU21D;51049;45.046;38.950;2022-12-07T15:58:31;4.24;64.69
64638;HTU21D;51049;45.046;38.950;2022-12-07T16:01:00;4.24;64.69
64638;HTU21D;51049;45.046;38.950;2022-12-07T16:03:35;4.26;64.70
64638;HTU21D;51049;45.046;38.950;2022-12-07T16:06:11;4.29;64.71
64638;HTU21D;51049;45.046;38.950;2022-12-07T16:08:51;4.31;64.69
64638;HTU21D;51049;45.046;38.950;2022-12-07T16:11:24;4.32;64.68
64638;HTU21D;51049;45.046;38.950;2022-12-07T16:14:03;4.32;64.69
64638;HTU21D;51049;45.046;38.950;2022-12-07T16:16:38;4.33;64.69
64638;HTU21D;51049;45.046;38.950;2022-12-07T16:19:12;4.33;64.69
64638;HTU21D;51049;45.046;38.950;2022-12-07T16:21:48;4.32;64.69
64638;HTU21D;51049;45.046;38.950;2022-12-07T16:24:30;4.32;64.70
64638;HTU21D;51049;45.046;38.950;2022-12-07T16:27:10;4.31;64.71
64638;HTU21D;51049;45.046;38.950;2022-12-07T16:29:53;4.31;64.72
64638;HTU21D;51049;45.046;38.950;2022-12-07T16:32:37;4.30;64.72
64638;HTU21D;51049;45.046;38.950;2022-12-07T16:35:04;4.31;64.71
64638;HTU21D;51049;45.046;38.950;2022-12-07T16:37:33;4.30;64.74
64638;HTU21D;51049;45.046;38.950;2022-12-07T16:40:20;4.29;64.73
64638;HTU21D;51049;45.046;38.950;2022-12-07T16:43:03;4.28;64.74
64638;HTU21D;51049;45.046;38.950;2022-12-07T16:45:31;4.26;64.76
64638;HTU21D;51049;45.046;38.950;2022-12-07T16:48:05;4.24;64.76
64638;HTU21D;51049;45.046;38.950;2022-12-07T16:50:39;4.22;64.78
64638;HTU21D;51049;45.046;38.950;2022-12-07T16:53:27;4.22;64.82
64638;HTU21D;51049;45.046;38.950;2022-12-07T16:56:03;4.20;64.79
64638;HTU21D;51049;45.046;38.950;2022-12-07T16:58:57;4.18;64.79
64638;HTU21D;51049;45.046;38.950;2022-12-07T17:01:32;4.15;64.80
64638;HTU21D;51049;45.046;38.950;2022-12-07T17:04:10;4.13;64.80
64638;HTU21D;51049;45.046;38.950;2022-12-07T17:06:54;4.10;64.81
64638;HTU21D;51049;45.046;38.950;2022-12-07T17:09:26;4.06;64.82
64638;HTU21D;51049;45.046;38.950;2022-12-07T17:11:55;4.04;64.82
64638;HTU21D;51049;45.046;38.950;2022-12-07T17:14:41;4.01;64.80
64638;HTU21D;51049;45.046;38.950;2022-12-07T17:17:25;3.98;64.79
64638;HTU21D;51049;45.046;38.950;2022-12-07T17:19:51;3.92;64.82
64638;HTU21D;51049;45.046;38.950;2022-12-07T17:22:26;3.89;64.85
64638;HTU21D;51049;45.046;38.950;2022-12-07T17:24:58;3.86;64.88
64638;HTU21D;51049;45.046;38.950;2022-12-07T17:27:44;3.84;64.91
64638;HTU21D;51049;45.046;38.950;2022-12-07T17:30:19;3.79;64.91
64638;HTU21D;51049;45.046;38.950;2022-12-07T17:32:51;3.75;64.92
64638;HTU21D;51049;45.046;38.950;2022-12-07T17:35:43;3.71;64.93
64638;HTU21D;51049;45.046;38.950;2022-12-07T17:38:20;3.67;64.98
64638;HTU21D;51049;45.046;38.950;2022-12-07T17:40:56;3.62;65.00
64638;HTU21D;51049;45.046;38.950;2022-12-07T17:44:02;3.57;65.04
64638;HTU21D;51049;45.046;38.950;2022-12-07T17:47:30;3.50;65.01
64638;HTU21D;51049;45.046;38.950;2022-12-07T17:50:33;3.46;65.08
64638;HTU21D;51049;45.046;38.950;2022-12-07T17:53:29;3.41;65.10
64638;HTU21D;51049;45.046;38.950;2022-12-07T17:56:16;3.39;65.10
64638;HTU21D;51049;45.046;38.950;2022-12-07T17:58:46;3.36;65.08
64638;HTU21D;51049;45.046;38.950;2022-12-07T18:01:23;3.32;65.10
64638;HTU21D;51049;45.046;38.950;2022-12-07T18:04:04;3.28;65.11
64638;HTU21D;51049;45.046;38.950;2022-12-07T18:06:35;3.24;65.14
64638;HTU21D;51049;45.046;38.950;2022-12-07T18:09:10;3.20;65.17
64638;HTU21D;51049;45.046;38.950;2022-12-07T18:11:44;3.17;65.21
64638;HTU21D;51049;45.046;38.950;2022-12-07T18:14:42;3.16;65.21
64638;HTU21D;51049;45.046;38.950;2022-12-07T18:17:25;3.10;65.21
64638;HTU21D;51049;45.046;38.950;2022-12-07T18:20:41;3.05;65.23
64638;HTU21D;51049;45.046;38.950;2022-12-07T18:23:22;3.02;65.26
64638;HTU21D;51049;45.046;38.950;2022-12-07T18:26:02;2.99;65.26
64638;HTU21D;51049;45.046;38.950;2022-12-07T18:29:07;2.98;65.31
64638;HTU21D;51049;45.046;38.950;2022-12-07T18:37:16;2.93;65.28
64638;HTU21D;51049;45.046;38.950;2022-12-07T18:40:00;2.89;65.27
64638;HTU21D;51049;45.046;38.950;2022-12-07T18:42:32;2.88;65.27
64638;HTU21D;51049;45.046;38.950;2022-12-07T18:45:04;2.85;65.28
64638;HTU21D;51049;45.046;38.950;2022-12-07T18:47:38;2.83;65.30
64638;HTU21D;51049;45.046;38.950;2022-12-07T18:50:28;2.81;65.33
64638;HTU21D;51049;45.046;38.950;2022-12-07T18:52:59;2.79;65.30
64638;HTU21D;51049;45.046;38.950;2022-12-07T18:55:29;2.75;65.32
64638;HTU21D;51049;45.046;38.950;2022-12-07T18:57:57;2.73;65.37
64638;HTU21D;51049;45.046;38.950;2022-12-07T19:00:33;2.72;65.37
64638;HTU21D;51049;45.046;38.950;2022-12-07T19:03:01;2.69;65.37
64638;HTU21D;51049;45.046;38.950;2022-12-07T19:05:27;2.65;65.40
64638;HTU21D;51049;45.046;38.950;2022-12-07T19:08:13;2.61;65.40
64638;HTU21D;51049;45.046;38.950;2022-12-07T19:10:40;2.57;65.41
64638;HTU21D;51049;45.046;38.950;2022-12-07T19:13:09;2.54;65.42
64638;HTU21D;51049;45.046;38.950;2022-12-07T19:15:47;2.51;65.43